createdAt,value
2017-10-18T18:01:29.171Z,13.30
2017-10-18T18:04:03.100Z,13.30
2017-10-18T18:12:19.540Z,13.50
2017-10-18T18:14:48.768Z,13.60
2017-10-18T18:17:19.020Z,13.70
2017-10-18T18:19:46.553Z,13.70
2017-10-18T18:22:15.809Z,13.70
2017-10-18T18:27:23.615Z,13.80
2017-10-18T18:30:31.567Z,13.70
2017-10-18T18:33:00.363Z,13.80
2017-10-18T18:35:42.515Z,13.70
2017-10-18T18:38:10.122Z,13.70
2017-10-18T18:40:38.674Z,13.70
2017-10-18T18:43:06.207Z,13.70
2017-10-18T18:45:33.835Z,13.60
2017-10-18T18:48:03.219Z,13.60
2017-10-18T18:50:30.796Z,13.60
2017-10-18T18:52:59.171Z,13.50
2017-10-18T18:55:27.060Z,13.50
2017-10-18T18:57:54.634Z,13.50
2017-10-18T19:00:22.263Z,13.40
2017-10-18T19:02:51.660Z,13.40
2017-10-18T19:05:21.205Z,13.40
2017-10-18T19:07:48.830Z,13.30
2017-10-18T19:10:16.499Z,13.20
2017-10-18T19:12:44.804Z,13.20
2017-10-18T19:15:14.060Z,13.10
2017-10-18T19:17:41.587Z,13.10
2017-10-18T19:20:09.132Z,13.00
2017-10-18T19:22:36.863Z,12.90
2017-10-18T19:25:05.163Z,12.90
2017-10-18T19:27:32.704Z,12.90
2017-10-18T19:30:00.639Z,12.90
2017-10-18T19:32:29.223Z,12.80
2017-10-18T19:34:56.835Z,12.80
2017-10-18T19:37:26.475Z,12.70
2017-10-18T19:39:54.061Z,12.70
2017-10-18T19:42:21.657Z,12.70
2017-10-18T19:44:50.190Z,12.60
2017-10-18T19:47:17.819Z,12.60
2017-10-18T19:49:45.452Z,12.60
2017-10-18T19:52:23.757Z,12.50
2017-10-18T19:58:44.970Z,12.40
2017-10-18T20:01:12.712Z,12.30
2017-10-18T20:03:41.152Z,12.30
2017-10-18T20:06:08.784Z,12.20
2017-10-18T20:08:37.095Z,12.00
2017-10-18T20:11:04.633Z,12.00
2017-10-18T20:13:32.976Z,11.90
2017-10-18T20:16:00.552Z,11.90
2017-10-18T20:18:28.091Z,11.80
2017-10-18T20:20:55.660Z,11.80
2017-10-18T20:23:23.204Z,11.80
2017-10-18T20:25:50.731Z,11.80
2017-10-18T20:28:18.319Z,11.80
2017-10-18T20:30:45.850Z,11.80
2017-10-18T20:33:25.440Z,11.70
2017-10-18T20:39:26.571Z,11.50
2017-10-18T20:41:54.151Z,11.50
2017-10-18T20:44:21.723Z,11.40
2017-10-18T20:46:49.355Z,11.30
2017-10-18T20:49:16.959Z,11.30
2017-10-18T20:51:44.500Z,11.20
2017-10-18T20:54:12.063Z,11.10
2017-10-18T20:56:39.655Z,11.10
2017-10-18T20:59:07.979Z,11.10
2017-10-18T21:01:35.640Z,11.10
2017-10-18T21:04:03.720Z,11.10
2017-10-18T21:06:31.267Z,11.10
2017-10-18T21:08:59.134Z,11.00
2017-10-18T21:11:26.671Z,11.00
2017-10-18T21:13:55.036Z,11.00
2017-10-18T21:16:22.611Z,11.00
2017-10-18T21:18:50.163Z,11.00
2017-10-18T21:21:18.516Z,10.90
2017-10-18T21:23:46.084Z,10.90
2017-10-18T21:26:15.441Z,11.00
2017-10-18T21:28:42.992Z,10.90
2017-10-18T21:31:10.613Z,10.90
2017-10-18T21:33:38.156Z,10.90
2017-10-18T21:36:05.695Z,10.90
2017-10-18T21:38:33.299Z,10.90
2017-10-18T21:41:00.875Z,10.90
2017-10-18T21:43:28.472Z,10.80
2017-10-18T21:45:56.046Z,10.80
2017-10-18T21:48:23.659Z,10.80
2017-10-18T21:50:51.203Z,10.80
2017-10-18T21:53:19.571Z,10.70
2017-10-18T21:55:47.339Z,10.70
2017-10-18T21:58:15.536Z,10.70
2017-10-18T22:00:43.098Z,10.70
2017-10-18T22:03:10.745Z,10.60
2017-10-18T22:05:39.545Z,10.60
2017-10-18T22:08:07.979Z,10.50
2017-10-18T22:10:35.523Z,10.50
2017-10-18T22:13:03.062Z,10.50
2017-10-18T22:15:30.707Z,10.50
2017-10-18T22:17:59.101Z,10.40
2017-10-18T22:20:26.699Z,10.40
2017-10-18T22:22:54.282Z,10.30
2017-10-18T22:25:21.810Z,10.30
2017-10-18T22:27:49.348Z,10.30
2017-10-18T22:30:16.999Z,10.30
2017-10-18T22:32:44.611Z,10.30
2017-10-18T22:35:12.148Z,10.30
2017-10-18T22:37:39.791Z,10.30
2017-10-18T22:40:07.362Z,10.30
2017-10-18T22:42:34.991Z,10.30
2017-10-18T22:45:03.372Z,10.10
2017-10-18T22:47:30.935Z,10.20
2017-10-18T22:49:58.476Z,10.10
2017-10-18T22:52:26.807Z,10.10
2017-10-18T22:54:54.347Z,10.10
2017-10-18T22:57:21.887Z,10.10
2017-10-18T22:59:49.488Z,10.00
2017-10-18T23:02:17.018Z,9.90
2017-10-18T23:04:44.552Z,9.90
2017-10-18T23:07:12.255Z,9.90
2017-10-18T23:09:39.808Z,9.90
2017-10-18T23:12:07.660Z,9.80
2017-10-18T23:14:35.217Z,9.80
2017-10-18T23:17:02.752Z,9.80
2017-10-18T23:19:30.370Z,9.80
2017-10-18T23:21:58.011Z,9.80
2017-10-18T23:24:25.596Z,9.70
2017-10-18T23:26:53.140Z,9.70
2017-10-18T23:29:20.715Z,9.70
2017-10-18T23:31:48.248Z,9.60
2017-10-18T23:34:16.488Z,9.60
2017-10-18T23:36:44.132Z,9.50
2017-10-18T23:39:11.753Z,9.50
2017-10-18T23:41:39.290Z,9.50
2017-10-18T23:44:07.795Z,9.50
2017-10-18T23:46:35.332Z,9.50
2017-10-18T23:49:03.672Z,9.50
2017-10-18T23:51:31.252Z,9.50
2017-10-18T23:53:58.787Z,9.50
2017-10-18T23:56:26.324Z,9.50
2017-10-18T23:58:53.879Z,9.40
